Terminal Aerodrome Forecast
Issued by NWS

Home | Current Version | Previous Version | Text Only | Print | Product List | Glossary On
Versions: 1 2 3 4 5 6 7 8 9 10 11 12 13 14 15 16 17 18 19 20 21 22 23 24 25 26 27 28 29
016
FTUS44 KBMX 031251 AAA
TAFEET
TAF AMD
KEET 031251Z 0313/0412 32005KT P6SM BKN015
      TEMPO 0313/0315 BKN007 OVC013
     FM031800 31006KT P6SM SCT080
     FM032000 32011KT P6SM SCT080
     FM040000 32006KT P6SM FEW200=

USA.gov is the U.S. government's official web portal to all federal, state and local government web resources and services.